createdAt,value
2022-10-19T00:01:03.589Z,19.63
2022-10-19T00:03:30.800Z,13.43
2022-10-19T00:05:57.617Z,24.13
2022-10-19T00:08:24.408Z,17.65
2022-10-19T00:10:51.163Z,16.42
2022-10-19T00:13:18.149Z,17.08
2022-10-19T00:15:45.320Z,16.60
2022-10-19T00:18:12.051Z,23.70
2022-10-19T00:20:38.735Z,20.25
2022-10-19T00:23:05.446Z,19.30
2022-10-19T00:25:32.263Z,26.23
2022-10-19T00:27:59.189Z,26.90
2022-10-19T00:30:25.830Z,14.15
2022-10-19T00:32:52.576Z,13.30
2022-10-19T00:35:19.292Z,22.10
2022-10-19T00:37:45.966Z,16.27
2022-10-19T00:40:13.117Z,23.20
2022-10-19T00:42:39.692Z,16.00
2022-10-19T00:45:13.748Z,17.40
2022-10-19T00:47:41.345Z,22.73
2022-10-19T00:50:09.141Z,20.65
2022-10-19T00:52:36.138Z,24.13
2022-10-19T00:55:03.357Z,19.65
2022-10-19T00:57:31.789Z,17.50
2022-10-19T01:00:00.987Z,14.20
2022-10-19T01:02:27.740Z,20.30
2022-10-19T01:04:54.760Z,22.50
2022-10-19T01:07:21.686Z,18.23
2022-10-19T01:09:48.349Z,16.75
2022-10-19T01:12:23.647Z,17.30
2022-10-19T01:15:05.653Z,17.65
2022-10-19T01:17:45.694Z,13.38
2022-10-19T01:20:49.620Z,12.10
2022-10-19T01:23:34.844Z,13.82
2022-10-19T01:26:04.155Z,24.10
2022-10-19T01:28:46.001Z,18.55
2022-10-19T01:31:48.077Z,12.30
2022-10-19T01:34:33.289Z,19.27
2022-10-19T01:37:02.832Z,14.77
2022-10-19T01:40:02.059Z,18.02
2022-10-19T01:42:32.968Z,10.20
2022-10-19T01:45:11.399Z,17.98
2022-10-19T01:47:58.229Z,18.05
2022-10-19T01:50:36.098Z,17.63
2022-10-19T01:53:06.662Z,15.27
2022-10-19T01:55:34.398Z,13.02
2022-10-19T01:58:08.359Z,17.48
2022-10-19T02:00:41.213Z,10.63
2022-10-19T02:03:10.287Z,26.17
2022-10-19T02:05:39.066Z,18.70
2022-10-19T02:08:15.709Z,25.10
2022-10-19T02:10:45.078Z,14.23
2022-10-19T02:13:14.289Z,14.18
2022-10-19T02:15:45.156Z,12.98
2022-10-19T02:18:15.737Z,17.52
2022-10-19T02:20:42.372Z,21.25
2022-10-19T02:23:09.847Z,17.80
2022-10-19T02:25:36.924Z,14.73
2022-10-19T02:28:05.511Z,15.38
2022-10-19T02:30:32.426Z,17.08
2022-10-19T02:32:59.354Z,14.57
2022-10-19T02:35:26.476Z,15.73
2022-10-19T02:37:53.201Z,12.65
2022-10-19T02:40:20.064Z,7.95
2022-10-19T02:42:58.442Z,14.10
2022-10-19T02:45:37.455Z,18.17
2022-10-19T02:48:13.184Z,15.35
2022-10-19T02:50:44.384Z,16.20
2022-10-19T02:53:11.169Z,17.73
2022-10-19T02:55:38.192Z,6.68
2022-10-19T02:58:05.010Z,11.80
2022-10-19T03:00:31.674Z,15.48
2022-10-19T03:02:58.261Z,10.50
2022-10-19T03:05:24.941Z,11.23
2022-10-19T03:07:52.042Z,9.25
2022-10-19T03:10:18.620Z,9.00
2022-10-19T03:12:45.312Z,9.00
2022-10-19T03:15:16.551Z,15.95
2022-10-19T03:17:43.473Z,8.15
2022-10-19T03:20:11.058Z,8.77
2022-10-19T03:22:38.063Z,21.42
2022-10-19T03:25:05.055Z,8.07
2022-10-19T03:27:32.020Z,11.43
2022-10-19T03:29:58.811Z,9.68
2022-10-19T03:32:25.594Z,12.00
2022-10-19T03:34:52.418Z,15.93
2022-10-19T03:37:19.080Z,5.63
2022-10-19T03:39:45.823Z,5.35
2022-10-19T03:42:12.520Z,15.90
2022-10-19T03:44:39.172Z,12.95
2022-10-19T03:47:05.809Z,10.27
2022-10-19T03:49:34.561Z,11.70
2022-10-19T03:52:03.594Z,5.13
2022-10-19T03:54:30.183Z,13.63
2022-10-19T03:56:56.858Z,9.05
2022-10-19T03:59:24.402Z,9.48
2022-10-19T04:01:51.000Z,12.82
2022-10-19T04:04:19.464Z,12.20
2022-10-19T04:06:48.115Z,6.00
2022-10-19T04:09:18.375Z,16.13
2022-10-19T04:11:45.903Z,10.88
2022-10-19T04:14:26.755Z,15.02
2022-10-19T04:17:03.346Z,14.02
2022-10-19T04:19:30.985Z,5.88
2022-10-19T04:21:58.169Z,5.82
2022-10-19T04:24:25.017Z,8.27
2022-10-19T04:26:54.539Z,8.68
2022-10-19T04:29:26.350Z,4.30
2022-10-19T04:31:56.329Z,10.82
2022-10-19T04:34:23.200Z,5.88
2022-10-19T04:36:50.086Z,17.48
2022-10-19T04:39:16.722Z,10.55
2022-10-19T04:41:43.348Z,12.63
2022-10-19T04:44:10.575Z,13.93
2022-10-19T04:46:38.484Z,10.10
2022-10-19T04:49:06.869Z,8.32
2022-10-19T04:51:33.717Z,8.02
2022-10-19T04:54:00.349Z,5.70
2022-10-19T04:56:27.847Z,7.72
2022-10-19T04:58:57.632Z,10.02
2022-10-19T05:01:25.610Z,9.80
2022-10-19T05:06:29.573Z,7.93
2022-10-19T05:08:56.857Z,14.82
2022-10-19T05:11:23.955Z,8.20
2022-10-19T05:13:51.244Z,5.25
2022-10-19T05:16:20.886Z,5.90
2022-10-19T05:18:51.980Z,6.38
2022-10-19T05:21:20.749Z,4.38
2022-10-19T05:23:50.606Z,10.82
2022-10-19T05:26:19.024Z,12.75
2022-10-19T05:29:04.748Z,8.35
2022-10-19T05:31:33.618Z,8.48
2022-10-19T05:34:01.240Z,9.20
2022-10-19T05:36:37.451Z,13.05
2022-10-19T05:39:13.091Z,16.40
2022-10-19T05:41:40.398Z,6.38
2022-10-19T05:44:07.030Z,14.23
2022-10-19T05:46:33.991Z,11.32
2022-10-19T05:49:00.766Z,13.63
2022-10-19T05:51:28.710Z,7.40
2022-10-19T05:53:56.458Z,7.20
2022-10-19T05:56:29.568Z,10.55
2022-10-19T05:58:58.236Z,9.30
2022-10-19T06:01:25.750Z,6.75
2022-10-19T06:03:54.755Z,5.82
2022-10-19T06:06:21.960Z,7.10
2022-10-19T06:08:49.639Z,16.48
2022-10-19T06:11:25.920Z,5.40
2022-10-19T06:13:55.798Z,8.10
2022-10-19T06:16:24.113Z,12.10
2022-10-19T06:18:52.437Z,10.57
2022-10-19T06:21:22.562Z,11.23
2022-10-19T06:24:03.999Z,11.32
2022-10-19T06:26:32.443Z,13.40
2022-10-19T06:29:00.791Z,12.20
2022-10-19T06:31:33.249Z,10.50
2022-10-19T06:34:00.104Z,13.60
2022-10-19T06:36:30.037Z,6.78
2022-10-19T06:38:57.100Z,9.95
2022-10-19T06:41:24.103Z,12.20
2022-10-19T06:43:55.090Z,7.32
2022-10-19T06:46:23.457Z,10.15
2022-10-19T06:48:55.967Z,12.65
2022-10-19T06:51:25.477Z,8.15
2022-10-19T06:53:56.634Z,6.68
2022-10-19T06:56:24.804Z,12.38
2022-10-19T06:58:52.383Z,7.45
2022-10-19T07:01:19.237Z,8.60
2022-10-19T07:03:46.059Z,14.73
2022-10-19T07:06:13.749Z,7.40
2022-10-19T07:08:42.166Z,12.60
2022-10-19T07:11:12.319Z,10.50
2022-10-19T07:13:39.432Z,8.60
2022-10-19T07:16:14.512Z,12.73
2022-10-19T07:18:44.666Z,43.25
2022-10-19T07:21:14.188Z,11.90
2022-10-19T07:23:42.361Z,18.65
2022-10-19T07:26:23.496Z,18.45
2022-10-19T07:28:50.995Z,14.38
2022-10-19T07:31:20.632Z,9.70
2022-10-19T07:33:51.632Z,7.68
2022-10-19T07:36:18.224Z,8.48
2022-10-19T07:38:44.885Z,5.72
2022-10-19T07:41:13.973Z,7.25
2022-10-19T07:43:41.952Z,15.40
2022-10-19T07:46:12.487Z,7.13
2022-10-19T07:48:39.326Z,9.93
2022-10-19T07:51:08.160Z,4.50
2022-10-19T07:53:35.428Z,9.73
2022-10-19T07:56:05.028Z,10.82
2022-10-19T07:58:31.902Z,5.82
2022-10-19T08:01:10.033Z,5.57
2022-10-19T08:06:25.446Z,10.45
2022-10-19T08:08:54.576Z,13.10
2022-10-19T08:11:48.047Z,9.93
2022-10-19T08:15:07.889Z,4.50
2022-10-19T08:17:11.964Z,11.48
2022-10-19T08:19:43.389Z,8.45
2022-10-19T08:22:10.733Z,7.05
2022-10-19T08:24:37.491Z,4.45
2022-10-19T08:27:04.209Z,5.05
2022-10-19T08:29:31.703Z,5.45
2022-10-19T08:31:59.525Z,5.40
2022-10-19T08:34:36.964Z,7.47
2022-10-19T08:37:10.442Z,7.95
2022-10-19T08:39:46.886Z,11.38
2022-10-19T08:42:18.445Z,5.25
2022-10-19T08:45:23.214Z,4.13
2022-10-19T08:48:14.408Z,7.78
2022-10-19T08:50:44.125Z,7.20
2022-10-19T08:53:15.768Z,11.45
2022-10-19T08:56:05.731Z,7.90
2022-10-19T08:58:53.385Z,6.22
2022-10-19T09:01:40.862Z,10.15
2022-10-19T09:04:33.341Z,5.82
2022-10-19T09:09:41.614Z,10.95
2022-10-19T09:12:16.758Z,7.20
2022-10-19T09:15:06.044Z,8.15
2022-10-19T09:17:33.676Z,10.63
2022-10-19T09:20:22.651Z,3.10
2022-10-19T09:23:20.012Z,10.27
2022-10-19T09:25:50.188Z,8.25
2022-10-19T09:28:20.138Z,8.73
2022-10-19T09:30:52.357Z,9.50
2022-10-19T09:33:31.691Z,12.02
2022-10-19T09:36:02.265Z,7.75
2022-10-19T09:38:31.544Z,9.48
2022-10-19T09:41:07.730Z,6.03
2022-10-19T09:43:34.885Z,7.38
2022-10-19T09:46:19.834Z,9.52
2022-10-19T09:48:52.399Z,9.10
2022-10-19T09:51:20.574Z,9.25
2022-10-19T09:53:54.884Z,6.05
2022-10-19T09:56:26.888Z,5.97
2022-10-19T10:01:41.468Z,6.57
2022-10-19T10:04:14.956Z,4.07
2022-10-19T10:09:17.374Z,16.23
2022-10-19T10:11:48.236Z,8.90
2022-10-19T10:14:21.664Z,4.68
2022-10-19T10:16:48.408Z,8.05
2022-10-19T10:19:17.332Z,5.75
2022-10-19T10:21:56.670Z,4.97
2022-10-19T10:24:29.520Z,7.65
2022-10-19T10:26:58.740Z,7.78
2022-10-19T10:29:28.282Z,6.43
2022-10-19T10:32:32.187Z,11.35
2022-10-19T10:35:04.915Z,8.05
2022-10-19T10:37:46.907Z,7.15
2022-10-19T10:40:31.998Z,8.25
2022-10-19T10:43:07.138Z,12.60
2022-10-19T10:45:39.774Z,9.38
2022-10-19T10:48:25.290Z,4.63
2022-10-19T10:50:53.031Z,6.80
2022-10-19T10:53:55.126Z,3.97
2022-10-19T10:56:21.727Z,9.95
2022-10-19T10:59:00.576Z,6.18
2022-10-19T11:01:33.616Z,4.30
2022-10-19T11:04:19.401Z,8.02
2022-10-19T11:06:56.654Z,5.03
2022-10-19T11:09:35.713Z,3.70
2022-10-19T11:12:10.381Z,3.17
2022-10-19T11:14:46.775Z,2.58
2022-10-19T11:17:27.685Z,8.95
2022-10-19T11:19:54.467Z,5.18
2022-10-19T11:22:35.558Z,2.47
2022-10-19T11:25:25.139Z,1.73
2022-10-19T11:28:01.917Z,13.30
2022-10-19T11:30:39.023Z,5.80
2022-10-19T11:33:59.798Z,8.20
2022-10-19T11:36:54.729Z,4.07
2022-10-19T11:39:36.279Z,8.43
2022-10-19T11:42:34.756Z,9.70
2022-10-19T11:45:40.003Z,7.60
2022-10-19T11:48:06.654Z,3.53
2022-10-19T11:50:49.718Z,3.35
2022-10-19T11:54:18.811Z,4.55
2022-10-19T11:57:11.506Z,8.80
2022-10-19T12:00:38.066Z,5.95
2022-10-19T12:03:44.814Z,3.85
2022-10-19T12:06:45.794Z,3.05
2022-10-19T12:09:25.034Z,3.10
2022-10-19T12:12:22.770Z,6.72
2022-10-19T12:14:53.521Z,2.20
2022-10-19T12:17:36.572Z,8.25
2022-10-19T12:20:08.770Z,5.93
2022-10-19T12:25:04.942Z,4.93
2022-10-19T12:27:37.400Z,5.82
2022-10-19T12:30:16.924Z,2.17
2022-10-19T12:32:58.682Z,4.30
2022-10-19T12:35:32.377Z,4.63
2022-10-19T12:38:45.087Z,2.10
2022-10-19T12:41:41.689Z,8.07
2022-10-19T12:44:27.326Z,3.33
2022-10-19T12:47:01.049Z,2.58
2022-10-19T12:49:30.595Z,2.25
2022-10-19T12:51:59.190Z,2.33
2022-10-19T12:54:39.171Z,3.33
2022-10-19T12:57:36.668Z,2.13
2022-10-19T13:00:20.597Z,3.65
2022-10-19T13:02:56.897Z,1.65
2022-10-19T13:05:37.696Z,2.47
2022-10-19T13:08:30.094Z,4.85
2022-10-19T13:11:18.098Z,1.98
2022-10-19T13:13:59.206Z,2.78
2022-10-19T13:17:02.087Z,3.53
2022-10-19T13:19:29.637Z,1.63
2022-10-19T13:22:02.094Z,1.92
2022-10-19T13:24:37.011Z,1.92
2022-10-19T13:27:03.766Z,5.65
2022-10-19T13:29:40.510Z,1.60
2022-10-19T13:32:37.607Z,2.38
2022-10-19T13:35:31.638Z,1.90
2022-10-19T13:38:16.563Z,5.43
2022-10-19T13:40:49.345Z,3.10
2022-10-19T13:43:26.057Z,4.95
2022-10-19T13:46:06.210Z,2.65
2022-10-19T13:49:14.420Z,1.75
2022-10-19T13:51:43.900Z,3.80
2022-10-19T13:54:34.113Z,3.63
2022-10-19T13:57:15.386Z,1.60
2022-10-19T14:00:03.154Z,4.75
2022-10-19T14:02:42.230Z,1.88
2022-10-19T14:05:17.861Z,3.47
2022-10-19T14:08:16.420Z,3.78
2022-10-19T14:11:02.958Z,2.90
2022-10-19T14:13:30.185Z,10.10
2022-10-19T14:15:58.973Z,8.20
2022-10-19T14:18:32.944Z,4.90
2022-10-19T14:21:08.343Z,6.22
2022-10-19T14:23:43.096Z,5.13
2022-10-19T14:26:19.617Z,5.03
2022-10-19T14:28:53.616Z,10.40
2022-10-19T14:31:23.176Z,3.17
2022-10-19T14:33:56.429Z,7.15
2022-10-19T14:36:28.199Z,2.90
2022-10-19T14:38:56.442Z,3.90
2022-10-19T14:44:36.437Z,6.13
2022-10-19T14:47:23.379Z,3.95
2022-10-19T14:49:50.976Z,5.47
2022-10-19T14:54:56.938Z,2.35
2022-10-19T14:57:28.886Z,2.20
2022-10-19T15:00:02.196Z,2.53
2022-10-19T15:02:46.182Z,3.90
2022-10-19T15:05:31.449Z,5.57
2022-10-19T15:08:06.232Z,4.18
2022-10-19T15:10:45.879Z,1.85
2022-10-19T15:13:40.954Z,3.00
2022-10-19T15:16:50.043Z,2.25
2022-10-19T15:19:34.213Z,1.75
2022-10-19T15:22:22.562Z,4.38
2022-10-19T15:25:19.305Z,6.85
2022-10-19T15:27:47.658Z,5.95
2022-10-19T15:30:17.251Z,4.07
2022-10-19T15:32:46.708Z,3.70
2022-10-19T15:35:35.052Z,5.88
2022-10-19T15:38:10.192Z,4.68
2022-10-19T15:40:40.145Z,4.25
2022-10-19T15:43:34.709Z,12.65
2022-10-19T15:46:20.511Z,10.68
2022-10-19T15:48:52.304Z,4.00
2022-10-19T15:51:24.894Z,4.32
2022-10-19T15:53:56.885Z,2.38
2022-10-19T15:56:27.485Z,3.00
2022-10-19T15:58:56.816Z,3.00
2022-10-19T16:01:26.594Z,5.32
2022-10-19T16:03:54.419Z,2.83
2022-10-19T16:06:23.440Z,4.70
2022-10-19T16:08:51.275Z,7.70
2022-10-19T16:11:21.169Z,4.57
2022-10-19T16:13:47.853Z,10.55
2022-10-19T16:16:28.245Z,4.10
2022-10-19T16:18:55.518Z,7.43
2022-10-19T16:21:26.851Z,6.78
2022-10-19T16:23:53.805Z,5.90
2022-10-19T16:26:21.124Z,4.18
2022-10-19T16:28:48.889Z,4.57
2022-10-19T16:31:17.203Z,4.47
2022-10-19T16:33:44.136Z,9.18
2022-10-19T16:36:11.162Z,8.18
2022-10-19T16:38:37.803Z,6.80
2022-10-19T16:41:07.993Z,5.15
2022-10-19T16:43:35.468Z,8.73
2022-10-19T16:46:02.794Z,5.20
2022-10-19T16:48:30.118Z,6.35
2022-10-19T16:51:06.083Z,7.45
2022-10-19T16:53:40.422Z,6.43
2022-10-19T16:56:16.486Z,8.00
2022-10-19T16:58:44.275Z,16.17
2022-10-19T17:01:18.920Z,6.65
2022-10-19T17:03:48.369Z,5.38
2022-10-19T17:06:16.150Z,9.32
2022-10-19T17:11:51.831Z,8.70
2022-10-19T17:14:27.282Z,11.77
2022-10-19T17:16:53.982Z,9.30
2022-10-19T17:19:26.693Z,10.43
2022-10-19T17:21:56.042Z,10.63
2022-10-19T17:24:23.046Z,9.30
2022-10-19T17:26:56.551Z,13.27
2022-10-19T17:29:23.497Z,13.43
2022-10-19T17:31:50.708Z,12.15
2022-10-19T17:34:22.601Z,9.90
2022-10-19T17:36:52.847Z,11.02
2022-10-19T17:39:30.830Z,12.15
2022-10-19T17:42:05.074Z,15.43
2022-10-19T17:44:31.979Z,17.05
2022-10-19T17:47:09.948Z,14.93
2022-10-19T17:49:37.063Z,12.48
2022-10-19T17:52:03.773Z,16.02
2022-10-19T17:54:30.727Z,15.80
2022-10-19T17:57:05.917Z,14.80
2022-10-19T17:59:46.764Z,11.70
2022-10-19T18:02:19.010Z,11.98
2022-10-19T18:04:45.617Z,9.82
2022-10-19T18:07:12.208Z,15.02
2022-10-19T18:09:38.953Z,14.00
2022-10-19T18:12:07.491Z,17.27
2022-10-19T18:14:34.450Z,15.57
2022-10-19T18:17:01.049Z,15.88
2022-10-19T18:19:27.931Z,15.55
2022-10-19T18:21:54.623Z,10.73
2022-10-19T18:24:21.655Z,21.48
2022-10-19T18:26:52.215Z,14.05
2022-10-19T18:29:23.953Z,16.80
2022-10-19T18:31:55.119Z,13.90
2022-10-19T18:34:26.513Z,12.52
2022-10-19T18:36:53.963Z,14.80
2022-10-19T18:39:21.094Z,13.80
2022-10-19T18:41:51.903Z,17.67
2022-10-19T18:44:23.502Z,14.90
2022-10-19T18:46:53.126Z,15.57
2022-10-19T18:49:19.823Z,18.90
2022-10-19T18:51:50.742Z,19.40
2022-10-19T18:54:21.583Z,21.45
2022-10-19T18:56:48.199Z,20.80
2022-10-19T18:59:15.237Z,22.98
2022-10-19T19:01:41.971Z,29.23
2022-10-19T19:04:09.671Z,21.83
2022-10-19T19:06:37.718Z,26.38
2022-10-19T19:09:07.930Z,18.85
2022-10-19T19:11:41.578Z,25.05
2022-10-19T19:14:25.375Z,19.80
2022-10-19T19:17:04.239Z,27.65
2022-10-19T19:19:36.308Z,24.35
2022-10-19T19:22:09.637Z,21.45
2022-10-19T19:24:37.079Z,24.50
2022-10-19T19:27:03.896Z,25.02
2022-10-19T19:29:30.674Z,22.10
2022-10-19T19:31:57.454Z,18.23
2022-10-19T19:34:24.226Z,22.98
2022-10-19T19:36:51.069Z,20.63
2022-10-19T19:39:20.121Z,24.80
2022-10-19T19:41:48.384Z,26.08
2022-10-19T19:44:15.694Z,27.55
2022-10-19T19:46:42.740Z,16.92
2022-10-19T19:49:09.607Z,20.08
2022-10-19T19:51:36.353Z,25.13
2022-10-19T19:54:03.154Z,19.25
2022-10-19T19:56:30.637Z,16.20
2022-10-19T19:58:59.686Z,22.70
2022-10-19T20:01:27.191Z,15.68
2022-10-19T20:03:55.043Z,18.63
2022-10-19T20:06:25.085Z,30.40
2022-10-19T20:08:53.456Z,16.17
2022-10-19T20:11:20.188Z,22.88
2022-10-19T20:13:46.829Z,20.48
2022-10-19T20:16:25.119Z,16.83
2022-10-19T20:19:08.413Z,17.70
2022-10-19T20:21:35.313Z,14.88
2022-10-19T20:24:02.190Z,16.60
2022-10-19T20:26:29.938Z,14.20
2022-10-19T20:28:57.289Z,13.95
2022-10-19T20:31:25.062Z,15.15
2022-10-19T20:33:51.871Z,12.85
2022-10-19T20:36:25.088Z,15.32
2022-10-19T20:38:57.028Z,15.35
2022-10-19T20:41:28.058Z,14.38
2022-10-19T20:43:55.686Z,14.60
2022-10-19T20:46:28.194Z,12.63
2022-10-19T20:48:59.885Z,11.27
2022-10-19T20:51:31.908Z,12.52
2022-10-19T20:54:01.041Z,12.82
2022-10-19T20:56:38.709Z,17.02
2022-10-19T20:59:08.353Z,13.07
2022-10-19T21:01:37.295Z,20.45
2022-10-19T21:04:06.071Z,17.20
2022-10-19T21:06:37.001Z,13.77
2022-10-19T21:09:04.586Z,13.30
2022-10-19T21:11:34.414Z,17.15
2022-10-19T21:14:03.890Z,11.90
2022-10-19T21:16:34.059Z,16.05
2022-10-19T21:19:02.373Z,16.17
2022-10-19T21:21:38.548Z,14.25
2022-10-19T21:24:11.622Z,13.50
2022-10-19T21:26:38.752Z,17.90
2022-10-19T21:29:09.635Z,11.18
2022-10-19T21:31:44.078Z,14.02
2022-10-19T21:34:16.335Z,12.95
2022-10-19T21:36:43.229Z,10.85
2022-10-19T21:39:10.051Z,12.07
2022-10-19T21:41:37.041Z,13.98
2022-10-19T21:44:03.837Z,13.10
2022-10-19T21:46:30.778Z,13.98
2022-10-19T21:48:57.653Z,16.00
2022-10-19T21:51:35.124Z,9.50
2022-10-19T21:56:48.782Z,16.00
2022-10-19T21:59:27.797Z,10.10
2022-10-19T22:01:58.263Z,8.15
2022-10-19T22:04:37.381Z,9.38
2022-10-19T22:07:07.296Z,7.07
2022-10-19T22:09:46.426Z,10.38
2022-10-19T22:14:46.716Z,10.38
2022-10-19T22:17:13.427Z,10.98
2022-10-19T22:19:40.000Z,11.77
2022-10-19T22:22:06.678Z,17.10
2022-10-19T22:24:34.769Z,6.85
2022-10-19T22:27:01.452Z,9.02
2022-10-19T22:29:28.060Z,8.82
2022-10-19T22:31:54.632Z,11.07
2022-10-19T22:34:21.423Z,12.75
2022-10-19T22:36:48.250Z,8.77
2022-10-19T22:39:15.633Z,14.13
2022-10-19T22:41:42.282Z,10.15
2022-10-19T22:44:08.866Z,12.93
2022-10-19T22:46:35.507Z,10.02
2022-10-19T22:49:02.227Z,11.38
2022-10-19T22:51:28.916Z,9.68
2022-10-19T22:53:55.585Z,10.75
2022-10-19T22:56:24.967Z,11.75
2022-10-19T22:58:51.704Z,10.82
2022-10-19T23:01:18.387Z,9.40
2022-10-19T23:03:45.071Z,17.02
2022-10-19T23:06:13.517Z,11.10
2022-10-19T23:08:40.410Z,6.25
2022-10-19T23:11:07.181Z,7.85
2022-10-19T23:13:33.809Z,10.32
2022-10-19T23:16:00.927Z,5.25
2022-10-19T23:18:30.198Z,6.15
2022-10-19T23:21:01.650Z,6.95
2022-10-19T23:23:29.665Z,9.17
2022-10-19T23:26:08.267Z,6.90
2022-10-19T23:28:37.057Z,11.00
2022-10-19T23:31:15.752Z,6.03
2022-10-19T23:33:43.075Z,9.13
2022-10-19T23:36:14.821Z,7.90
2022-10-19T23:38:43.111Z,7.20
2022-10-19T23:41:10.221Z,8.68
2022-10-19T23:46:08.861Z,8.73
2022-10-19T23:48:36.226Z,7.60
2022-10-19T23:51:12.766Z,7.80
2022-10-19T23:53:41.730Z,4.50
2022-10-19T23:56:20.631Z,5.18
2022-10-19T23:58:47.313Z,6.35
